Portada
METAR-TAF:

METAR-TAF

Aeropuertos :

Brescia Ghedi, Italia

latitud: 45-25N, longitud: 010-17E, altitud: 102 m

Observación

El informe se hizo hace 36 minutos, a las 22:55 UTC
Viento 9 kt del este
Temperatura 10°C
Humedad 66%
Presión 1026 hPa
Visibilidad: 8000 m

METAR: LIPL 222255Z 08009KT 8000 NSC 10/04 Q1026 RMK SKC VIS MIN 8000 WIND THR31 08014KT WIND THR13 06007KT BLU

Hora: 00:31 (23:31 UTC)

Pronóstico

El informe se hizo hace 3 horas y 31 minutos, a las 20:00 UTC
Pronóstico válido del 22 a las 21 UTC al 23 a las 06 UTC
Viento 5 kt con dirección variable
Visibilidad: 6000 m
Temporalmente
del 22 a las 21 UTC al 23 a las 06 UTC
Visibilidad: 2000 m
neblina
Probabilidad 30% :
Temporalmente
del 23 a las 00 UTC al 23 a las 06 UTC
Visibilidad: 1200 m
Nubes dispersas a una altura de 300 ft
niebla en bancos

TAF: LIPL 222000Z 2221/2306 VRB05KT 6000 NSC TEMPO 2221/2306 2000 BR PROB30 TEMPO 2300/2306 1200 BCFG SCT003

Observaciones y pronósticos meteorológicos de más de 4000 aeropuertos (mensajes METAR y TAF).

Los puntos amarillos y rojos representan las estaciones disponibles.

Ponga el ratón en el punto deseado para ver el nombre de la estación.

Haga clic para ver las observaciones y los pronósticos meteorológicos.

Para cambiar el mapa : haga clic en los botones verdes con una cruz de color negro para hacer un zoom, en el botón verde con un guión para alejar o en las flechas verdes para mapas adyacentes.


METAR-TAF: